aviador You're here:

LYKV Decoded Metar

KRALJEVO/LADEVCI in SERBIA
Report Time2017-09-25 04:00:00
UTC Time2017-09-25 04:10:20
Flight Rules ifr IFR
WindVRB at 01 kt
Visibility3000 m
Phenomena:Light Rain
Mist
Clouds:Scattered 013 Hf
Broken 033 Hf
Ceiling3,300 ft
Temp13°C (ISA -1)
Dew Point13°C (100% RH)
QNH1020 hPa
Density Alt587 ft
Elevation694 ft
Report Wrong Elevation
Raw Report
METAR LYKV 250400Z VRB01KT 3000 -RA BR SCT013 BKN033 13/13 Q1020
NOSIG=

Extra information for LYKV:More info

Metar Taf Metar & Taf Last 4 Metars F.Rules Stats Wind Profile Meteogram Temp Stats Airport Information Weather charts Add Link Nearby VenuesMetar ALERT Operation Metar Decoded Social comments